createdAt,value
2023-05-17T00:00:57.397Z,100509.38
2023-05-17T00:03:27.187Z,100514.09
2023-05-17T00:05:55.562Z,100505.78
2023-05-17T00:08:23.961Z,100516.84
2023-05-17T00:10:52.624Z,100518.09
2023-05-17T00:13:21.091Z,100513.03
2023-05-17T00:15:49.466Z,100510.59
2023-05-17T00:18:18.020Z,100513.91
2023-05-17T00:20:47.896Z,100500.88
2023-05-17T00:23:16.358Z,100498.44
2023-05-17T00:25:44.964Z,100493.00
2023-05-17T00:28:13.397Z,100507.53
2023-05-17T00:30:41.843Z,100504.06
2023-05-17T00:33:10.286Z,100507.97
2023-05-17T00:35:38.710Z,100514.31
2023-05-17T00:38:08.536Z,100520.88
2023-05-17T00:40:38.630Z,100506.44
2023-05-17T00:43:07.002Z,100511.72
2023-05-17T00:45:35.570Z,100518.31
2023-05-17T00:48:04.219Z,100513.63
2023-05-17T00:50:32.883Z,100516.28
2023-05-17T00:53:01.550Z,100515.69
2023-05-17T00:55:31.855Z,100518.56
2023-05-17T00:58:01.043Z,100517.19
2023-05-17T01:00:30.820Z,100520.28
2023-05-17T01:02:59.245Z,100527.63
2023-05-17T01:05:28.866Z,100531.56
2023-05-17T01:07:57.657Z,100525.88
2023-05-17T01:10:37.851Z,100533.22
2023-05-17T01:13:12.235Z,100535.28
2023-05-17T01:15:45.696Z,100532.72
2023-05-17T01:18:25.496Z,100544.13
2023-05-17T01:20:56.275Z,100543.78
2023-05-17T01:23:39.119Z,100545.00
2023-05-17T01:26:17.252Z,100540.94
2023-05-17T01:28:52.834Z,100548.31
2023-05-17T01:31:22.123Z,100546.91
2023-05-17T01:33:50.570Z,100537.78
2023-05-17T01:36:19.000Z,100550.44
2023-05-17T01:38:47.356Z,100552.50
2023-05-17T01:41:24.451Z,100560.09
2023-05-17T01:44:10.182Z,100557.50
2023-05-17T01:46:42.530Z,100554.03
2023-05-17T01:49:17.635Z,100566.47
2023-05-17T01:51:50.856Z,100561.38
2023-05-17T01:54:24.707Z,100569.56
2023-05-17T01:56:59.544Z,100568.94
2023-05-17T01:59:31.410Z,100572.88
2023-05-17T02:02:06.241Z,100573.28
2023-05-17T02:04:34.916Z,100567.81
2023-05-17T02:07:03.665Z,100572.91
2023-05-17T02:09:32.744Z,100577.03
2023-05-17T02:12:01.468Z,100582.31
2023-05-17T02:14:31.261Z,100580.91
2023-05-17T02:16:59.929Z,100581.94
2023-05-17T02:19:28.396Z,100580.53
2023-05-17T02:21:56.759Z,100577.28
2023-05-17T02:24:25.370Z,100568.75
2023-05-17T02:26:53.735Z,100577.72
2023-05-17T02:29:22.200Z,100571.00
2023-05-17T02:31:51.963Z,100573.88
2023-05-17T02:34:20.349Z,100580.19
2023-05-17T02:36:52.468Z,100575.31
2023-05-17T02:39:20.942Z,100580.22
2023-05-17T02:41:49.382Z,100583.72
2023-05-17T02:44:18.415Z,100583.91
2023-05-17T02:46:46.870Z,100579.03
2023-05-17T02:49:16.594Z,100579.47
2023-05-17T02:51:44.996Z,100586.41
2023-05-17T02:54:13.447Z,100589.25
2023-05-17T02:56:41.821Z,100592.94
2023-05-17T02:59:10.575Z,100595.78
2023-05-17T03:01:40.654Z,100599.44
2023-05-17T03:04:09.481Z,100596.19
2023-05-17T03:06:40.596Z,100586.59
2023-05-17T03:09:09.164Z,100598.22
2023-05-17T03:11:38.171Z,100601.09
2023-05-17T03:14:11.073Z,100591.75
2023-05-17T03:16:39.424Z,100587.91
2023-05-17T03:19:08.260Z,100596.66
2023-05-17T03:21:36.808Z,100601.94
2023-05-17T03:24:08.133Z,100606.66
2023-05-17T03:26:38.165Z,100609.50
2023-05-17T03:29:08.015Z,100614.00
2023-05-17T03:31:36.571Z,100619.50
2023-05-17T03:34:05.300Z,100612.78
2023-05-17T03:36:36.698Z,100617.28
2023-05-17T03:39:06.574Z,100622.78
2023-05-17T03:41:35.709Z,100625.66
2023-05-17T03:44:04.172Z,100619.53
2023-05-17T03:46:34.227Z,100605.69
2023-05-17T03:49:02.893Z,100619.16
2023-05-17T03:51:32.832Z,100610.22
2023-05-17T03:54:02.941Z,100630.97
2023-05-17T03:56:33.775Z,100624.88
2023-05-17T03:59:02.248Z,100629.53
2023-05-17T04:01:30.725Z,100631.78
2023-05-17T04:04:01.398Z,100638.75
2023-05-17T04:06:30.164Z,100628.34
2023-05-17T04:08:59.736Z,100632.81
2023-05-17T04:11:28.320Z,100633.84
2023-05-17T04:13:59.197Z,100627.94
2023-05-17T04:16:27.612Z,100631.41
2023-05-17T04:18:57.001Z,100642.22
2023-05-17T04:21:25.502Z,100640.78
2023-05-17T04:23:54.336Z,100645.28
2023-05-17T04:26:22.802Z,100650.56
2023-05-17T04:28:51.411Z,100648.16
2023-05-17T04:31:21.175Z,100654.25
2023-05-17T04:33:49.868Z,100655.47
2023-05-17T04:36:18.683Z,100664.22
2023-05-17T04:38:47.559Z,100673.19
2023-05-17T04:41:19.793Z,100676.63
2023-05-17T04:43:49.412Z,100681.13
2023-05-17T04:46:25.699Z,100680.50
2023-05-17T04:48:56.340Z,100671.75
2023-05-17T04:51:27.039Z,100681.13
2023-05-17T04:53:56.169Z,100687.44
2023-05-17T04:56:24.547Z,100683.78
2023-05-17T04:58:53.429Z,100686.63
2023-05-17T05:01:22.577Z,100689.88
2023-05-17T05:03:53.409Z,100686.19
2023-05-17T05:06:22.383Z,100695.97
2023-05-17T05:08:51.143Z,100706.56
2023-05-17T05:11:19.567Z,100703.91
2023-05-17T05:13:48.018Z,100710.84
2023-05-17T05:16:16.610Z,100704.94
2023-05-17T05:18:46.429Z,100716.72
2023-05-17T05:21:16.408Z,100716.72
2023-05-17T05:23:44.834Z,100712.88
2023-05-17T05:26:14.417Z,100723.44
2023-05-17T05:28:43.610Z,100710.63
2023-05-17T05:31:13.044Z,100720.00
2023-05-17T05:33:47.614Z,100728.53
2023-05-17T05:36:17.630Z,100731.56
2023-05-17T05:38:46.012Z,100729.53
2023-05-17T05:41:14.608Z,100727.69
2023-05-17T05:43:43.015Z,100737.06
2023-05-17T05:46:11.409Z,100733.38
2023-05-17T05:48:42.038Z,100734.19
2023-05-17T05:51:10.953Z,100731.31
2023-05-17T05:53:43.774Z,100739.09
2023-05-17T05:56:12.304Z,100725.22
2023-05-17T05:58:40.764Z,100737.25
2023-05-17T06:01:10.606Z,100735.59
2023-05-17T06:03:38.973Z,100744.38
2023-05-17T06:06:07.889Z,100744.13
2023-05-17T06:08:36.319Z,100745.75
2023-05-17T06:11:06.275Z,100749.84
2023-05-17T06:13:34.816Z,100752.09
2023-05-17T06:16:03.302Z,100758.00
2023-05-17T06:18:31.699Z,100752.69
2023-05-17T06:21:00.261Z,100761.22
2023-05-17T06:23:28.660Z,100761.63
2023-05-17T06:25:57.061Z,100760.22
2023-05-17T06:28:26.856Z,100758.16
2023-05-17T06:30:55.206Z,100769.78
2023-05-17T06:33:23.739Z,100768.53
2023-05-17T06:35:56.612Z,100771.78
2023-05-17T06:38:26.730Z,100763.03
2023-05-17T06:40:55.366Z,100774.63
2023-05-17T06:43:24.223Z,100776.25
2023-05-17T06:45:54.061Z,100784.00
2023-05-17T06:48:22.556Z,100785.19
2023-05-17T06:50:51.224Z,100782.31
2023-05-17T06:53:19.717Z,100784.78
2023-05-17T06:55:48.111Z,100803.91
2023-05-17T06:58:16.453Z,100778.25
2023-05-17T07:00:44.864Z,100786.78
2023-05-17T07:03:14.728Z,100777.22
2023-05-17T07:05:43.173Z,100773.13
2023-05-17T07:08:11.539Z,100771.06
2023-05-17T07:10:39.912Z,100774.94
2023-05-17T07:13:08.268Z,100775.34
2023-05-17T07:15:36.680Z,100776.53
2023-05-17T07:18:05.533Z,100783.63
2023-05-17T07:20:35.344Z,100779.16
2023-05-17T07:23:03.769Z,100784.63
2023-05-17T07:25:33.037Z,100782.94
2023-05-17T07:28:01.398Z,100784.97
2023-05-17T07:30:29.947Z,100786.34
2023-05-17T07:32:58.453Z,100794.28
2023-05-17T07:35:27.120Z,100787.31
2023-05-17T07:37:56.974Z,100784.84
2023-05-17T07:40:25.412Z,100784.00
2023-05-17T07:42:54.055Z,100778.22
2023-05-17T07:45:22.687Z,100774.91
2023-05-17T07:47:51.275Z,100775.44
2023-05-17T07:50:19.683Z,100785.44
2023-05-17T07:52:48.352Z,100781.13
2023-05-17T07:55:18.336Z,100789.84
2023-05-17T07:57:47.479Z,100784.25
2023-05-17T08:00:19.309Z,100791.97
2023-05-17T08:02:47.805Z,100777.59
2023-05-17T08:05:16.240Z,100785.84
2023-05-17T08:07:44.682Z,100785.78
2023-05-17T08:10:13.122Z,100787.34
2023-05-17T08:12:42.908Z,100794.66
2023-05-17T08:15:12.038Z,100785.78
2023-05-17T08:17:40.391Z,100789.44
2023-05-17T08:20:10.958Z,100784.25
2023-05-17T08:22:39.409Z,100781.16
2023-05-17T08:25:08.606Z,100773.56
2023-05-17T08:27:36.955Z,100791.84
2023-05-17T08:30:11.905Z,100785.28
2023-05-17T08:32:44.980Z,100775.03
2023-05-17T08:35:13.856Z,100783.75
2023-05-17T08:37:43.028Z,100780.41
2023-05-17T08:40:12.239Z,100773.06
2023-05-17T08:42:40.949Z,100778.66
2023-05-17T08:45:12.204Z,100775.91
2023-05-17T08:47:43.447Z,100776.84
2023-05-17T08:50:12.943Z,100783.13
2023-05-17T08:52:42.566Z,100778.97
2023-05-17T08:55:11.396Z,100777.47
2023-05-17T08:57:40.742Z,100778.66
2023-05-17T09:00:14.661Z,100780.25
2023-05-17T09:02:43.980Z,100774.94
2023-05-17T09:05:14.289Z,100781.91
2023-05-17T09:07:42.971Z,100776.59
2023-05-17T09:10:13.622Z,100784.31
2023-05-17T09:12:42.420Z,100793.47
2023-05-17T09:15:16.944Z,100778.91
2023-05-17T09:17:52.295Z,100770.69
2023-05-17T09:20:25.331Z,100773.34
2023-05-17T09:22:53.724Z,100768.03
2023-05-17T09:25:24.486Z,100766.66
2023-05-17T09:27:54.485Z,100771.38
2023-05-17T09:30:30.432Z,100779.13
2023-05-17T09:32:59.158Z,100778.13
2023-05-17T09:35:31.633Z,100779.47
2023-05-17T09:38:08.610Z,100783.78
2023-05-17T09:40:41.096Z,100774.31
2023-05-17T09:43:10.633Z,100776.88
2023-05-17T09:45:41.312Z,100765.19
2023-05-17T09:48:14.747Z,100774.56
2023-05-17T09:50:49.780Z,100780.81
2023-05-17T09:53:29.679Z,100787.31
2023-05-17T09:56:00.143Z,100790.31
2023-05-17T09:58:29.956Z,100773.34
2023-05-17T10:01:03.766Z,100794.63
2023-05-17T10:03:34.411Z,100783.75
2023-05-17T10:06:05.458Z,100793.56
2023-05-17T10:08:35.132Z,100784.53
2023-05-17T10:11:10.222Z,100784.91
2023-05-17T10:13:45.399Z,100786.97
2023-05-17T10:16:15.948Z,100777.72
2023-05-17T10:18:45.172Z,100780.97
2023-05-17T10:21:13.844Z,100778.88
2023-05-17T10:23:44.408Z,100785.03
2023-05-17T10:26:16.108Z,100808.41
2023-05-17T10:28:46.439Z,100776.84
2023-05-17T10:31:16.913Z,100780.56
2023-05-17T10:33:48.647Z,100779.25
2023-05-17T10:36:19.776Z,100781.13
2023-05-17T10:38:48.880Z,100786.44
2023-05-17T10:41:19.177Z,100776.84
2023-05-17T10:43:48.519Z,100804.34
2023-05-17T10:46:21.449Z,100782.59
2023-05-17T10:48:52.178Z,100783.22
2023-05-17T10:51:25.698Z,100784.59
2023-05-17T10:54:10.306Z,100775.09
2023-05-17T10:56:42.924Z,100776.03
2023-05-17T10:59:21.533Z,100770.03
2023-05-17T11:01:59.842Z,100774.09
2023-05-17T11:04:34.764Z,100767.50
2023-05-17T11:07:27.054Z,100771.88
2023-05-17T11:09:57.439Z,100767.69
2023-05-17T11:12:38.502Z,100761.72
2023-05-17T11:15:11.112Z,100760.41
2023-05-17T11:17:53.969Z,100770.38
2023-05-17T11:20:35.102Z,100760.09
2023-05-17T11:23:06.403Z,100764.34
2023-05-17T11:25:37.059Z,100765.41
2023-05-17T11:28:10.500Z,100763.53
2023-05-17T11:30:51.172Z,100764.94
2023-05-17T11:33:33.264Z,100760.41
2023-05-17T11:36:08.044Z,100768.97
2023-05-17T11:38:38.348Z,100766.66
2023-05-17T11:43:52.327Z,100752.63
2023-05-17T11:46:22.569Z,100769.53
2023-05-17T11:48:54.712Z,100764.81
2023-05-17T11:51:25.081Z,100758.44
2023-05-17T11:53:56.125Z,100767.81
2023-05-17T11:56:39.404Z,100766.50
2023-05-17T11:59:11.663Z,100757.00
2023-05-17T12:01:47.687Z,100753.31
2023-05-17T12:04:26.121Z,100748.00
2023-05-17T12:06:55.515Z,100748.53
2023-05-17T12:09:26.247Z,100738.34
2023-05-17T12:11:55.639Z,100735.00
2023-05-17T12:14:24.063Z,100730.34
2023-05-17T12:16:56.294Z,100728.00
2023-05-17T12:19:29.824Z,100728.91
2023-05-17T12:22:09.419Z,100717.75
2023-05-17T12:24:39.646Z,100713.56
2023-05-17T12:27:08.292Z,100716.69
2023-05-17T12:29:37.037Z,100711.22
2023-05-17T12:32:07.265Z,100717.19
2023-05-17T12:34:37.228Z,100717.59
2023-05-17T12:37:10.320Z,100723.81
2023-05-17T12:39:39.048Z,100726.34
2023-05-17T12:42:08.509Z,100714.97
2023-05-17T12:44:37.359Z,100716.09
2023-05-17T12:47:05.811Z,100718.84
2023-05-17T12:49:41.129Z,100710.84
2023-05-17T12:52:11.570Z,100711.91
2023-05-17T12:54:41.740Z,100707.94
2023-05-17T12:57:15.735Z,100702.09
2023-05-17T12:59:53.117Z,100704.28
2023-05-17T13:02:22.393Z,100705.22
2023-05-17T13:04:52.433Z,100690.56
2023-05-17T13:07:24.950Z,100698.88
2023-05-17T13:09:53.606Z,100693.53
2023-05-17T13:12:24.241Z,100688.78
2023-05-17T13:14:54.832Z,100697.38
2023-05-17T13:17:27.973Z,100694.19
2023-05-17T13:19:58.427Z,100688.63
2023-05-17T13:22:27.392Z,100688.94
2023-05-17T13:24:56.105Z,100681.56
2023-05-17T13:27:24.504Z,100692.31
2023-05-17T13:29:53.080Z,100674.75
2023-05-17T13:32:22.972Z,100676.38
2023-05-17T13:34:51.519Z,100674.84
2023-05-17T13:37:21.565Z,100686.31
2023-05-17T13:39:49.920Z,100676.50
2023-05-17T13:42:18.749Z,100669.88
2023-05-17T13:44:47.178Z,100661.84
2023-05-17T13:47:15.633Z,100671.31
2023-05-17T13:49:44.021Z,100657.44
2023-05-17T13:52:13.390Z,100659.06
2023-05-17T13:54:43.126Z,100653.19
2023-05-17T13:57:13.075Z,100645.16
2023-05-17T13:59:42.320Z,100651.88
2023-05-17T14:02:11.558Z,100650.56
2023-05-17T14:04:40.646Z,100648.94
2023-05-17T14:07:09.066Z,100648.38
2023-05-17T14:09:37.417Z,100653.72
2023-05-17T14:12:08.072Z,100657.50
2023-05-17T14:14:36.567Z,100656.22
2023-05-17T14:17:05.502Z,100651.19
2023-05-17T14:19:33.940Z,100652.78
2023-05-17T14:22:02.448Z,100643.16
2023-05-17T14:24:30.979Z,100641.56
2023-05-17T14:26:59.649Z,100644.53
2023-05-17T14:29:30.387Z,100643.25
2023-05-17T14:31:58.732Z,100634.97
2023-05-17T14:34:27.146Z,100636.81
2023-05-17T14:36:55.717Z,100636.81
2023-05-17T14:39:24.255Z,100651.66
2023-05-17T14:41:52.698Z,100634.78
2023-05-17T14:44:21.206Z,100638.91
2023-05-17T14:46:50.928Z,100647.72
2023-05-17T14:49:19.406Z,100635.97
2023-05-17T14:51:47.802Z,100630.88
2023-05-17T14:54:16.839Z,100647.72
2023-05-17T14:56:45.503Z,100642.06
2023-05-17T14:59:13.921Z,100645.53
2023-05-17T15:01:42.350Z,100648.78
2023-05-17T15:04:12.105Z,100640.78
2023-05-17T15:06:40.803Z,100639.22
2023-05-17T15:09:12.825Z,100635.47
2023-05-17T15:11:42.046Z,100633.59
2023-05-17T15:14:10.377Z,100632.03
2023-05-17T15:16:39.007Z,100631.22
2023-05-17T15:19:07.754Z,100633.91
2023-05-17T15:21:37.535Z,100632.34
2023-05-17T15:24:06.927Z,100640.44
2023-05-17T15:26:35.596Z,100645.28
2023-05-17T15:29:03.974Z,100637.56
2023-05-17T15:31:32.758Z,100640.53
2023-05-17T15:34:01.582Z,100623.16
2023-05-17T15:36:30.257Z,100626.41
2023-05-17T15:39:00.036Z,100629.66
2023-05-17T15:41:30.234Z,100627.78
2023-05-17T15:43:59.030Z,100642.25
2023-05-17T15:46:27.439Z,100640.38
2023-05-17T15:48:57.001Z,100632.09
2023-05-17T15:51:25.430Z,100626.25
2023-05-17T15:53:53.798Z,100621.69
2023-05-17T15:56:23.587Z,100631.09
2023-05-17T15:58:52.654Z,100627.13
2023-05-17T16:01:21.217Z,100631.44
2023-05-17T16:03:49.678Z,100633.38
2023-05-17T16:06:18.166Z,100637.69
2023-05-17T16:08:46.686Z,100624.59
2023-05-17T16:11:15.065Z,100637.75
2023-05-17T16:13:44.938Z,100620.34
2023-05-17T16:16:14.610Z,100628.50
2023-05-17T16:18:43.218Z,100626.38
2023-05-17T16:21:12.123Z,100620.81
2023-05-17T16:23:40.501Z,100630.75
2023-05-17T16:26:08.920Z,100629.44
2023-05-17T16:28:37.463Z,100632.69
2023-05-17T16:31:07.744Z,100649.88
2023-05-17T16:33:36.400Z,100632.47
2023-05-17T16:36:05.659Z,100640.78
2023-05-17T16:38:34.212Z,100645.63
2023-05-17T16:41:03.605Z,100657.44
2023-05-17T16:43:32.188Z,100648.88
2023-05-17T16:46:00.719Z,100647.84
2023-05-17T16:48:30.720Z,100647.56
2023-05-17T16:50:59.721Z,100647.56
2023-05-17T16:53:29.116Z,100646.25
2023-05-17T16:55:57.572Z,100649.22
2023-05-17T16:58:26.749Z,100643.31
2023-05-17T17:00:55.160Z,100652.22
2023-05-17T17:03:23.574Z,100649.28
2023-05-17T17:05:53.493Z,100645.28
2023-05-17T17:08:21.872Z,100637.78
2023-05-17T17:10:50.257Z,100654.97
2023-05-17T17:13:18.652Z,100643.75
2023-05-17T17:15:47.414Z,100640.28
2023-05-17T17:18:17.593Z,100645.38
2023-05-17T17:21:09.377Z,100638.19
2023-05-17T17:23:40.827Z,100648.34
2023-05-17T17:26:11.298Z,100638.69
2023-05-17T17:28:39.819Z,100646.22
2023-05-17T17:31:08.378Z,100639.22
2023-05-17T17:33:37.688Z,100650.16
2023-05-17T17:36:09.307Z,100648.50
2023-05-17T17:38:37.810Z,100641.53
2023-05-17T17:41:06.347Z,100645.78
2023-05-17T17:43:34.807Z,100651.13
2023-05-17T17:46:03.386Z,100643.88
2023-05-17T17:48:32.882Z,100645.97
2023-05-17T17:51:01.341Z,100654.50
2023-05-17T17:53:31.125Z,100652.84
2023-05-17T17:55:59.469Z,100652.84
2023-05-17T17:58:27.869Z,100654.16
2023-05-17T18:00:56.243Z,100660.00
2023-05-17T18:03:24.722Z,100658.34
2023-05-17T18:05:53.144Z,100660.50
2023-05-17T18:08:21.540Z,100665.56
2023-05-17T18:10:51.331Z,100655.34
2023-05-17T18:13:19.668Z,100665.75
2023-05-17T18:15:48.040Z,100667.91
2023-05-17T18:18:16.583Z,100661.41
2023-05-17T18:20:45.023Z,100670.22
2023-05-17T18:23:13.437Z,100672.34
2023-05-17T18:25:41.890Z,100666.69
2023-05-17T18:28:11.649Z,100660.72
2023-05-17T18:30:40.622Z,100677.81
2023-05-17T18:33:09.151Z,100675.91
2023-05-17T18:35:37.780Z,100677.47
2023-05-17T18:38:06.181Z,100675.56
2023-05-17T18:40:34.820Z,100675.28
2023-05-17T18:43:03.200Z,100680.31
2023-05-17T18:45:36.302Z,100666.88
2023-05-17T18:48:05.007Z,100670.31
2023-05-17T18:50:33.589Z,100678.28
2023-05-17T18:53:02.020Z,100664.84
2023-05-17T18:55:30.500Z,100678.41
2023-05-17T18:57:58.948Z,100672.75
2023-05-17T19:00:27.442Z,100682.59
2023-05-17T19:02:57.803Z,100693.22
2023-05-17T19:05:26.343Z,100674.94
2023-05-17T19:07:54.786Z,100679.75
2023-05-17T19:10:23.188Z,100686.06
2023-05-17T19:12:51.632Z,100695.84
2023-05-17T19:15:21.091Z,100699.53
2023-05-17T19:17:49.569Z,100698.66
2023-05-17T19:20:19.849Z,100693.47
2023-05-17T19:22:48.238Z,100699.34
2023-05-17T19:25:17.472Z,100699.25
2023-05-17T19:27:47.747Z,100690.38
2023-05-17T19:30:16.355Z,100711.44
2023-05-17T19:32:44.800Z,100701.41
2023-05-17T19:35:13.233Z,100716.28
2023-05-17T19:37:43.109Z,100716.78
2023-05-17T19:40:14.769Z,100715.56
2023-05-17T19:42:43.173Z,100716.06
2023-05-17T19:45:12.614Z,100722.09
2023-05-17T19:47:41.295Z,100721.25
2023-05-17T19:50:11.404Z,100735.50
2023-05-17T19:52:39.858Z,100737.31
2023-05-17T19:55:09.957Z,100726.78
2023-05-17T19:57:38.418Z,100735.25
2023-05-17T20:00:08.884Z,100741.31
2023-05-17T20:02:37.437Z,100743.09
2023-05-17T20:05:06.679Z,100747.28
2023-05-17T20:07:35.107Z,100741.88
2023-05-17T20:10:03.525Z,100740.69
2023-05-17T20:12:33.347Z,100736.91
2023-05-17T20:15:01.760Z,100743.53
2023-05-17T20:17:30.286Z,100740.22
2023-05-17T20:19:58.720Z,100749.25
2023-05-17T20:22:27.228Z,100746.50
2023-05-17T20:24:57.796Z,100737.00
2023-05-17T20:27:26.877Z,100746.28
2023-05-17T20:29:56.632Z,100749.88
2023-05-17T20:32:25.088Z,100762.53
2023-05-17T20:34:53.512Z,100757.94
2023-05-17T20:37:21.897Z,100759.88
2023-05-17T20:39:50.341Z,100761.19
2023-05-17T20:42:20.391Z,100768.84
2023-05-17T20:44:49.257Z,100767.66
2023-05-17T20:47:19.012Z,100766.97
2023-05-17T20:49:50.200Z,100766.63
2023-05-17T20:52:27.737Z,100760.16
2023-05-17T20:55:07.443Z,100764.59
2023-05-17T20:57:35.868Z,100769.56
2023-05-17T21:00:06.478Z,100765.75
2023-05-17T21:02:36.387Z,100768.28
2023-05-17T21:05:05.122Z,100771.19
2023-05-17T21:07:34.948Z,100785.44
2023-05-17T21:10:03.466Z,100774.44
2023-05-17T21:12:31.843Z,100779.41
2023-05-17T21:15:15.167Z,100777.19
2023-05-17T21:17:46.988Z,100780.56
2023-05-17T21:20:15.667Z,100773.28
2023-05-17T21:22:44.407Z,100782.53
2023-05-17T21:25:12.815Z,100784.84
2023-05-17T21:27:41.212Z,100787.41
2023-05-17T21:30:10.870Z,100784.59
2023-05-17T21:32:39.310Z,100785.88
2023-05-17T21:35:09.865Z,100782.84
2023-05-17T21:37:40.132Z,100792.88
2023-05-17T21:40:10.700Z,100782.94
2023-05-17T21:42:39.203Z,100778.88
2023-05-17T21:45:09.295Z,100779.56
2023-05-17T21:47:37.693Z,100784.53
2023-05-17T21:50:08.595Z,100793.56
2023-05-17T21:52:37.534Z,100782.78
2023-05-17T21:55:07.917Z,100789.59
2023-05-17T21:57:37.055Z,100774.88
2023-05-17T22:00:07.882Z,100781.50
2023-05-17T22:02:37.400Z,100784.59
2023-05-17T22:05:07.148Z,100783.19
2023-05-17T22:07:37.180Z,100774.84
2023-05-17T22:10:09.369Z,100781.66
2023-05-17T22:12:38.557Z,100781.91
2023-05-17T22:15:09.722Z,100781.31
2023-05-17T22:17:47.706Z,100776.66
2023-05-17T22:20:22.963Z,100788.56
2023-05-17T22:22:52.723Z,100778.38
2023-05-17T22:25:21.187Z,100782.28
2023-05-17T22:27:49.578Z,100779.50
2023-05-17T22:30:18.176Z,100784.81
2023-05-17T22:32:46.789Z,100783.66
2023-05-17T22:35:15.230Z,100785.72
2023-05-17T22:37:45.414Z,100797.25
2023-05-17T22:40:15.617Z,100804.63
2023-05-17T22:42:44.865Z,100784.41
2023-05-17T22:45:14.489Z,100779.53
2023-05-17T22:47:43.663Z,100791.22
2023-05-17T22:50:14.487Z,100790.84
2023-05-17T22:52:42.910Z,100791.28
2023-05-17T22:55:11.839Z,100788.84
2023-05-17T22:57:42.363Z,100784.97
2023-05-17T23:00:12.062Z,100789.91
2023-05-17T23:02:40.536Z,100792.22
2023-05-17T23:05:11.210Z,100787.38
2023-05-17T23:07:41.432Z,100785.97
2023-05-17T23:10:12.649Z,100795.16
2023-05-17T23:12:42.535Z,100789.50
2023-05-17T23:15:12.321Z,100792.38
2023-05-17T23:17:41.276Z,100777.69
2023-05-17T23:20:12.108Z,100794.88
2023-05-17T23:22:41.128Z,100795.31
2023-05-17T23:25:10.655Z,100783.50
2023-05-17T23:27:39.013Z,100786.41
2023-05-17T23:30:10.283Z,100790.28
2023-05-17T23:32:38.653Z,100790.72
2023-05-17T23:35:09.599Z,100788.31
2023-05-17T23:37:38.388Z,100793.00
2023-05-17T23:40:09.411Z,100791.63
2023-05-17T23:42:37.901Z,100791.03
2023-05-17T23:45:09.344Z,100791.47
2023-05-17T23:47:40.937Z,100775.97
2023-05-17T23:50:10.888Z,100786.81
2023-05-17T23:52:39.917Z,100775.59
2023-05-17T23:55:09.325Z,100782.97
2023-05-17T23:57:38.815Z,100779.72
